Duarte Cardoso

Recruteur - Porto
3 Déc 2028
Dimanche
Processus

Personnalité

Adaptabilité (16) Ambition (17) Controverse (2) Loyauté (17) Pression (8) Professionnalisme (17) Sportivité (15) Tempérament (5)

Profil

Style d'entraînement Démocratique
Diplôme Continental B
Détermination 11
Gestion des joueurs 13
Motivation 10
Discipline 12
Satisfaction professionnelle
100%
Fatigue
0%
Rôle Recruteur
Salaire 119.5K p/s
Contrat 14.03.2030

Performance

Comportement Bon
Efficacité de l'entraînement
50%
Développement des joueurs
60%
Prévention des blessures
75%
Mise en place tactique
45%

Événements récents

A participé à une réunion de recrutement maintenant
A recommandé une cible de transfert maintenant
A recommandé une cible de transfert maintenant
A recommandé une cible de transfert maintenant
A recommandé une cible de transfert maintenant
A évalué un joueur maintenant
A évalué un joueur maintenant
A évalué un joueur maintenant

Suivi en cours

202
Joueur Club Statut Capacité Confiance Observé Dernière observation Dernier vote
Fábio Carvalho Brentford Actif 151 / 153 40% 5 01.12.2028 -
Bukayo Saka Arsenal Actif 192 / 182 40% 6 01.12.2028 -
Endrick Boca Juniors Actif 162 / 158 40% 23 01.12.2028 -
Boubacar Kamara Aston Villa Actif 164 / 169 40% 24 30.11.2028 -
Enzo Fernández Manchester City Actif 175 / 177 40% 8 30.11.2028 -
Martin Ødegaard Arsenal Actif 175 / 177 40% 6 30.11.2028 -
Barış Alper Yılmaz Cruzeiro Actif 153 / 150 40% 7 30.11.2028 -
Alejandro Garnacho Hull City Actif 168 / 162 40% 6 30.11.2028 -
Cristian Uribe Monaco Actif 164 / 155 40% 1 30.11.2028 -
Ben Gannon Doak Charlton Athletic Actif 161 / 158 40% 7 28.11.2028 -
Geovany Quenda Watford Actif 149 / 156 40% 3 28.11.2028 -
Jérémy Doku Manchester City Actif 176 / 177 40% 6 25.11.2028 -
Alexander Isak Liverpool Actif 178 / 175 40% 6 24.11.2028 -
Vinícius Júnior LOSC Lille Actif 183 / 182 40% 9 24.11.2028 -
Désiré Doué Stade Brestois Actif 173 / 166 40% 3 24.11.2028 -
Xavi Simons Tottenham Actif 167 / 159 40% 13 23.11.2028 -
Borja Sainz Udinese Actif 154 / 150 40% 10 23.11.2028 -
Maximiliano Araújo West Ham United Actif 154 / 156 40% 36 20.11.2028 -
Adrien Truffert Flamengo Actif 157 / 158 40% 6 20.11.2028 -
Jaden Philogene Wolverhampton Actif 149 / 148 40% 7 19.11.2028 -
Gonzalo Paris Saint-Germain Actif 153 / 152 40% 1 18.11.2028 -
Babis Kostoulas Oxford United Actif 150 / 154 40% 2 17.11.2028 -
Iliman N'Diaye Everton Actif 160 / 159 40% 5 15.11.2028 -
Julio Enciso Aston Villa Actif 157 / 160 40% 4 15.11.2028 -
Bradley Barcola Liverpool Actif 170 / 165 40% 5 14.11.2028 -
Ousmane Diomande Nottingham Forest Actif 162 / 166 40% 4 13.11.2028 -
Neco Williams Wrexham Actif 158 / 150 40% 12 13.11.2028 -
William Saliba Arsenal Actif 176 / 184 40% 9 13.11.2028 -
Carlos Alcaraz Stoke City Actif 159 / 153 40% 4 10.11.2028 -
Phil Foden Manchester City Actif 183 / 177 40% 11 09.11.2028 -
Florian Wirtz Liverpool Actif 179 / 174 40% 8 09.11.2028 -
Melvin Bard OGC Nice Actif 159 / 157 40% 9 08.11.2028 -
Emile Smith Rowe Cardiff City Actif 164 / 161 40% 5 08.11.2028 -
Mateus Fernandes Sheffield United Actif 153 / 159 40% 4 08.11.2028 -
Jacob Greaves Ipswich Town Actif 153 / 150 40% 1 08.11.2028 -
Rayan Cherki Manchester City Actif 173 / 171 40% 6 06.11.2028 -
Savinho Tottenham Actif 163 / 160 40% 7 03.11.2028 -
Kai Havertz Liverpool Actif 169 / 168 40% 3 02.11.2028 -
Mason Mount Manchester United Actif 160 / 155 40% 1 02.11.2028 -
Wesley Fofana Chelsea Actif 175 / 172 40% 3 27.10.2028 -
Martín Zubimendi Arsenal Actif 172 / 169 40% 9 27.10.2028 -
Matheus Cunha Manchester United Actif 166 / 165 40% 3 27.10.2028 -
Guille Rosas Boca Juniors Actif 156 / 147 40% 2 27.10.2028 -
Nicolas Jackson Aston Villa Actif 154 / 155 40% 10 25.10.2028 -
Marcus Tavernier Bournemouth Actif 152 / 155 40% 4 24.10.2028 -
Amadou Onana Aston Villa Actif 160 / 157 40% 13 21.10.2028 -
Hugo Ekitiké Liverpool Actif 169 / 172 40% 6 21.10.2028 -
Alex Scott Bournemouth Actif 160 / 164 40% 20 20.10.2028 -
Miloš Kerkez Liverpool Actif 169 / 169 40% 4 20.10.2028 -
Willian Pacho Paris Saint-Germain Actif 175 / 174 40% 1 20.10.2028 -
Khvicha Kvaratskhelia Paris Saint-Germain Actif 168 / 174 40% 1 11.10.2028 -
Ferdi Kadıoğlu Brighton Actif 155 / 158 40% 1 11.10.2028 -
Tino Livramento Newcastle United Actif 165 / 170 40% 13 08.10.2028 -
Tyrick Mitchell Newcastle United Actif 155 / 159 40% 1 08.10.2028 -
Juanlu Bournemouth Actif 161 / 158 40% 6 06.10.2028 -
Carlos Baleba Norwich City Actif 162 / 163 40% 1 06.10.2028 -
Dejan Kulusevski Tottenham Actif 170 / 173 40% 1 06.10.2028 -
Joško Gvardiol Manchester City Actif 171 / 172 40% 4 04.10.2028 -
Evann Guessand Aston Villa Actif 151 / 154 40% 1 04.10.2028 -
Yeremy Pino Crystal Palace Actif 160 / 155 40% 6 28.09.2028 -
Óscar Mingueza Crystal Palace Actif 152 / 154 40% 16 27.09.2028 -
Ryan Gravenberch Liverpool Actif 170 / 164 40% 10 27.09.2028 -
Matteo Ruggeri Middlesbrough Actif 159 / 155 40% 19 21.09.2028 -
Gabriel Martinelli Arsenal Actif 168 / 171 40% 4 21.09.2028 -
Destiny Udogie Tottenham Actif 159 / 162 40% 1 21.09.2028 -
Bafodé Diakité Plymouth Argyle Actif 147 / 148 40% 13 17.09.2028 -
Nico O'Reilly Manchester City Actif 158 / 164 40% 7 15.09.2028 -
Amine Adli Bournemouth Actif 152 / 150 40% 3 12.09.2028 -
Reece James Chelsea Actif 173 / 176 40% 14 12.09.2028 -
Nico González Arsenal Actif 171 / 166 40% 1 12.09.2028 -
Ladislav Krejčí Wolverhampton Actif 154 / 153 40% 1 12.09.2028 -
Rico Lewis West Bromwich Albion Actif 162 / 165 40% 1 12.09.2028 -
Sandro Tonali Tottenham Actif 171 / 179 40% 29 11.09.2028 -
Amad Manchester United Actif 162 / 161 40% 11 09.09.2028 -
Jeremie Frimpong Liverpool Actif 169 / 165 40% 6 08.09.2028 -
Bryan Mbeumo Manchester United Actif 165 / 165 40% 1 08.09.2028 -
Jurriën Timber Arsenal Actif 164 / 172 40% 6 07.09.2028 -
João Félix Red Bull Salzburg Actif 161 / 160 40% 1 05.09.2028 -
Morgan Gibbs-White Chelsea Actif 160 / 159 40% 1 05.09.2028 -
Lewis Hall Newcastle United Actif 162 / 163 40% 3 04.09.2028 -
Morgan Rogers Chelsea Actif 169 / 162 40% 5 04.09.2028 -
Omar Marmoush Manchester City Actif 172 / 169 40% 1 31.08.2028 -
Dominik Szoboszlai Liverpool Actif 166 / 170 40% 4 29.08.2028 -
Marc Guéhi Manchester City Actif 176 / 171 40% 1 28.08.2028 -
Alexis Mac Allister Liverpool Actif 163 / 167 40% 17 26.08.2028 -
Álvaro Montoro Botafogo Actif 138 / 143 40% 1 22.08.2028 -
Kauã Moraes Flamengo Actif 138 / 133 40% 3 21.08.2028 -
Lennart Karl TSG Hoffenheim Actif 139 / 152 40% 1 21.08.2028 -
Carlos Augusto Inter Actif 155 / 154 40% 3 20.08.2028 -
Thierry Rendall Correia Venezia Actif 145 / 145 40% 1 20.08.2028 -
Matteo Gabbia Genoa Actif 155 / 155 40% 1 20.08.2028 -
Manu Koné AS Roma Actif 169 / 170 40% 16 19.08.2028 -
Nicolò Fagioli Fiorentina Actif 150 / 151 40% 1 19.08.2028 -
Giacomo Raspadori Atalanta Actif 161 / 151 40% 2 16.08.2028 -
Alexis Saelemaekers AC Milan Actif 158 / 157 40% 2 16.08.2028 -
Nicolò Zaniolo Udinese Actif 159 / 150 40% 1 16.08.2028 -
Alessandro Bastoni Inter Actif 167 / 172 40% 1 16.08.2028 -
Juan Miranda Bologna Actif 151 / 151 40% 1 16.08.2028 -
Dodo Fiorentina Actif 157 / 159 40% 1 12.08.2028 -
Exequiel Palacios Lazio Actif 156 / 163 40% 12 11.08.2028 -
Devyne Rensch Virtus Entella Actif 153 / 147 40% 1 10.08.2028 -
Khéphren Thuram Juventus Actif 160 / 165 40% 1 10.08.2028 -
Kevin Fulham Actif 161 / 157 40% 5 06.08.2028 -
Malick Fofana Sunderland Actif 156 / 154 40% 4 03.08.2028 -
André Wolverhampton Actif 157 / 156 40% 11 02.08.2028 -
Noussair Mazraoui Manchester United Actif 164 / 157 40% 7 02.08.2028 -
Lamare Bogarde Reading Actif 145 / 144 40% 1 02.08.2028 -
Yasin Ayari Middlesbrough Actif 153 / 157 40% 4 30.07.2028 -
Jarrad Branthwaite Everton Actif 158 / 161 40% 7 29.07.2028 -
Shea Charles Southampton Actif 155 / 150 40% 3 29.07.2028 -
Joe Rodon Blackburn Rovers Actif 151 / 149 40% 6 28.07.2028 -
Patrick Dorgu Bristol City Actif 150 / 151 40% 2 28.07.2028 -
Andrey Santos Bolton Wanderers Actif 157 / 151 40% 6 27.07.2028 -
Mikkel Damsgaard Brentford Actif 152 / 151 40% 4 25.07.2028 -
James Justin Leeds United Actif 150 / 145 40% 2 25.07.2028 -
Matheus Nunes Manchester City Actif 168 / 163 40% 4 21.07.2028 -
Vitaly Janelt Derby County Actif 152 / 150 40% 16 18.07.2028 -
Pedro Porro Tottenham Actif 165 / 157 40% 24 17.07.2028 -
Archie Gray Southampton Actif 153 / 152 40% 5 02.07.2028 -
Jan Paul van Hecke Tottenham Actif 170 / 165 40% 10 29.06.2028 -
Jayden Bogle Leeds United Actif 150 / 141 40% 6 28.06.2028 -
Kevin Schade Chelsea Actif 153 / 159 40% 2 27.06.2028 -
Quinten Timber Crystal Palace Actif 159 / 161 40% 10 23.06.2028 -
Mats Wieffer Brighton Actif 149 / 150 40% 12 13.06.2028 -
Fernando Penafiel Perdu 126 / 136 69% 1 12.06.2028 -
Yerson Mosquera Wolverhampton Actif 146 / 142 40% 1 12.06.2028 -
Rafael Lobato Rio Ave Actif 121 / 131 69% 1 06.06.2028 Approuver
Giorgos Vagiannidis Farense Actif 132 / 137 69% 1 03.06.2028 Approuver
Georginio Rutter Brighton Perdu 155 / 154 40% 10 01.06.2028 -
Moisés Caicedo Chelsea Actif 178 / 172 40% 13 30.05.2028 -
Manuel Ugarte Leicester City Actif 151 / 147 40% 4 11.05.2028 -
Achraf Hakimi Paris Saint-Germain Actif 180 / 177 40% 9 11.05.2028 -
Xaver Schlager Nottingham Forest Actif 157 / 151 40% 2 11.05.2028 -
Nordi Mukiele Sunderland Actif 151 / 153 40% 6 30.04.2028 -
Youri Tielemans Manchester United Actif 170 / 167 40% 7 25.04.2028 -
Aaron Hickey Brentford Actif 153 / 154 40% 1 10.04.2028 -
Sven Botman Newcastle United Actif 164 / 160 40% 8 06.04.2028 -
Adam Wharton Crystal Palace Actif 158 / 156 40% 5 05.04.2028 -
Gabriel Arsenal Actif 179 / 168 40% 3 24.03.2028 -
Víctor Gómez Braga Actif 143 / 137 40% 3 17.03.2028 -
Rúben Dias Manchester City Actif 170 / 169 40% 1 17.03.2028 -
James Garner Everton Actif 158 / 160 40% 3 29.02.2028 -
Nathan Collins Brentford Actif 149 / 154 40% 2 24.02.2028 -
Takehiro Tomiyasu Crystal Palace Actif 155 / 152 40% 3 13.02.2028 -
Santiago Salcedo Cruzeiro Actif 156 / 154 40% 13 04.02.2028 -
Quilindschy Hartman Burnley Actif 148 / 147 40% 2 18.01.2028 -
Pau Víctor Braga Perdu 144 / 137 69% 2 13.01.2028 -
Christos Mandas Lazio Actif 155 / 152 40% 1 31.12.2027 -
Hákon Rafn Valdimarsson Southampton Actif 141 / 147 40% 1 31.12.2027 -
Vitinha Paris Saint-Germain Actif 188 / 178 40% 2 21.12.2027 -
Ryan Sessegnon Fulham Actif 150 / 151 40% 1 17.11.2027 -
Sander Berge Derby County Actif 150 / 151 40% 1 09.11.2027 -
Levi Colwill Chelsea Actif 161 / 164 40% 2 02.11.2027 -
Kobbie Mainoo Manchester United Actif 161 / 161 40% 3 31.10.2027 -
Ian Maatsen Aston Villa Actif 159 / 161 40% 1 26.10.2027 -
Jake O'Brien Everton Actif 145 / 152 40% 1 10.10.2027 -
Yehor Yarmoliuk Brentford Actif 151 / 155 40% 3 21.09.2027 -
Maxence Lacroix Chelsea Actif 160 / 155 40% 1 12.09.2027 -
Bertuğ Yıldırım Basaksehir Actif 120 / 117 40% 3 17.06.2027 -
Sota Kitano Red Bull Salzburg Actif 121 / 129 40% 1 17.06.2027 -
Mohamed-Ali Cho Hull City Actif 130 / 136 40% 2 03.06.2027 -
Benjamin Šeško Manchester United Actif 159 / 160 40% 3 03.06.2027 -
Erick Sánchez RC Lens Actif 139 / 139 68% 1 01.06.2027 Approuver
Luiz Henrique AS Roma Actif 142 / 143 68% 1 01.06.2027 Approuver
Younes Ebnoutalib Eintracht Frankfurt Actif 138 / 136 40% 1 01.06.2027 -
Jacob Ramsey Newcastle United Actif 156 / 146 40% 4 28.05.2027 -
Nicolò Tresoldi Club Brugge Actif 129 / 136 40% 3 27.05.2027 -
Emanuel Emegha Chelsea Actif 142 / 144 40% 5 25.05.2027 -
Jeff Ekhator Juventus Actif 123 / 132 40% 4 25.05.2027 -
Mathys Tel Tottenham Actif 138 / 148 40% 2 25.05.2027 -
Sindre Walle Egeli Udinese Actif 126 / 131 40% 4 23.05.2027 -
João Pedro Chelsea Actif 158 / 146 40% 4 19.05.2027 -
Manor Solomon West Ham United Actif 148 / 134 40% 5 18.05.2027 -
Chemsdine Talbi Sunderland Actif 138 / 143 40% 5 15.05.2027 -
Matt O'Riley Brighton Actif 153 / 139 40% 2 15.05.2027 -
Morgan Rogers Chelsea Perdu 157 / 154 40% 5 11.05.2027 -
Ilyas Ansah Hull City Actif 128 / 138 40% 2 09.05.2027 -
Jay Stansfield Birmingham Actif 124 / 131 40% 1 07.05.2027 -
Noni Madueke Arsenal Actif 162 / 154 40% 1 23.04.2027 -
Pablo Felipe West Ham United Actif 130 / 133 40% 2 19.04.2027 -
Jadon Sancho Manchester United Actif 156 / 147 40% 1 15.04.2027 -
Curtis Jones Inter Actif 159 / 151 40% 1 11.04.2027 -
Ryan Oné Sheffield United Actif 108 / 125 40% 1 07.04.2027 -
Cody Gakpo Liverpool Actif 154 / 163 40% 1 22.03.2027 -
Rocco Vata Watford Actif 118 / 123 40% 1 05.03.2027 -
Ole Pohlmann Rio Ave Actif 129 / 115 69% 1 02.01.2027 Approuver
Viktor Gyökeres Arsenal Perdu 152 / 154 40% 1 31.12.2026 -
Dean Henderson Crystal Palace Actif 144 / 153 40% 2 27.12.2026 -
James Trafford Leeds United Actif 141 / 141 40% 1 21.12.2026 -
Mads Hermansen West Ham United Actif 133 / 130 40% 1 21.12.2026 -
Giorgi Mamardashvili Liverpool Actif 160 / 153 40% 3 20.12.2026 -
Zion Suzuki Aston Villa Actif 140 / 140 40% 3 19.12.2026 -
Senne Lammens Manchester United Actif 151 / 155 40% 3 11.12.2026 -
Mile Svilar AS Roma Actif 162 / 159 40% 2 11.12.2026 -
Caoimhin Kelleher Brentford Actif 143 / 143 40% 1 11.12.2026 -
Elia Caprile Cagliari Actif 144 / 138 40% 4 08.12.2026 -
Dmytro Riznyk Racing Genk Actif 135 / 143 40% 2 05.12.2026 -
Marvin Keller Chelsea Actif 135 / 142 40% 3 03.12.2026 Observer
Robin Roefs Sunderland Actif 146 / 146 40% 1 21.11.2026 -
Keisuke Osako Sanfrecce Hiroshima Actif 132 / 150 40% 1 20.11.2026 -
Alex Meret Napoli Actif 145 / 148 40% 3 10.11.2026 -
Joseph Leclercq Tottenham Actif 155 / 153 40% 1 04.11.2026 -